createdAt,value
2018-11-26T00:01:54.073Z,50.77
2018-11-26T00:04:23.655Z,49.90
2018-11-26T00:06:51.511Z,49.57
2018-11-26T00:09:19.270Z,49.80
2018-11-26T00:11:48.486Z,47.37
2018-11-26T00:14:17.084Z,46.97
2018-11-26T00:16:45.032Z,46.30
2018-11-26T00:19:14.166Z,46.07
2018-11-26T00:21:44.182Z,45.80
2018-11-26T00:24:12.102Z,44.87
2018-11-26T00:26:41.047Z,44.60
2018-11-26T00:29:10.119Z,45.20
2018-11-26T00:31:39.142Z,44.07
2018-11-26T00:34:08.149Z,43.57
2018-11-26T00:36:36.154Z,41.57
2018-11-26T00:39:06.490Z,41.87
2018-11-26T00:41:34.462Z,42.80
2018-11-26T00:44:04.187Z,41.40
2018-11-26T00:46:33.169Z,40.80
2018-11-26T00:49:01.726Z,42.77
2018-11-26T00:51:30.166Z,41.40
2018-11-26T00:54:00.854Z,40.70
2018-11-26T00:56:30.671Z,40.63
2018-11-26T00:58:58.409Z,41.07
2018-11-26T01:01:27.630Z,41.20
2018-11-26T01:03:55.654Z,40.87
2018-11-26T01:06:23.591Z,39.53
2018-11-26T01:08:52.885Z,37.63
2018-11-26T01:11:23.022Z,37.77
2018-11-26T01:13:55.301Z,37.10
2018-11-26T01:16:23.444Z,37.77
2018-11-26T01:18:55.776Z,36.33
2018-11-26T01:21:24.963Z,36.83
2018-11-26T01:23:53.639Z,37.87
2018-11-26T01:26:26.313Z,36.13
2018-11-26T01:28:54.242Z,35.33
2018-11-26T01:31:24.105Z,33.77
2018-11-26T01:33:52.840Z,33.57
2018-11-26T01:36:23.768Z,34.57
2018-11-26T01:38:53.051Z,34.37
2018-11-26T01:41:23.703Z,34.57
2018-11-26T01:43:53.973Z,33.07
2018-11-26T01:46:22.277Z,32.17
2018-11-26T01:48:50.836Z,33.10
2018-11-26T01:51:18.759Z,31.73
2018-11-26T01:53:47.746Z,32.37
2018-11-26T01:56:16.478Z,31.00
2018-11-26T01:58:44.407Z,30.43
2018-11-26T02:01:13.549Z,30.60
2018-11-26T02:03:42.497Z,30.03
2018-11-26T02:06:10.238Z,30.77
2018-11-26T02:08:38.754Z,30.47
2018-11-26T02:11:07.209Z,29.57
2018-11-26T02:13:35.869Z,28.77
2018-11-26T02:16:05.324Z,30.43
2018-11-26T02:18:33.124Z,27.93
2018-11-26T02:21:02.300Z,27.57
2018-11-26T02:23:30.147Z,28.03
2018-11-26T02:25:58.915Z,28.37
2018-11-26T02:28:27.223Z,28.27
2018-11-26T02:30:56.679Z,27.90
2018-11-26T02:33:24.479Z,26.27
2018-11-26T02:35:52.262Z,26.90
2018-11-26T02:38:20.023Z,26.97
2018-11-26T02:40:47.960Z,25.83
2018-11-26T02:43:15.769Z,24.93
2018-11-26T02:45:43.671Z,26.40
2018-11-26T02:48:11.467Z,24.60
2018-11-26T02:50:39.727Z,24.80
2018-11-26T02:53:07.601Z,25.20
2018-11-26T02:55:35.371Z,25.13
2018-11-26T02:58:03.194Z,25.13
2018-11-26T03:00:32.033Z,25.57
2018-11-26T03:03:00.381Z,24.57
2018-11-26T03:05:29.973Z,25.47
2018-11-26T03:07:58.142Z,23.93
2018-11-26T03:10:26.497Z,23.57
2018-11-26T03:12:54.099Z,23.13
2018-11-26T03:15:21.982Z,22.77
2018-11-26T03:17:49.916Z,22.83
2018-11-26T03:20:32.613Z,22.03
2018-11-26T03:23:00.287Z,23.03
2018-11-26T03:25:28.646Z,21.60
2018-11-26T03:27:56.368Z,21.67
2018-11-26T03:30:24.879Z,21.17
2018-11-26T03:32:52.590Z,21.10
2018-11-26T03:35:20.318Z,22.90
2018-11-26T03:37:48.011Z,20.80
2018-11-26T03:40:15.840Z,21.37
2018-11-26T03:42:43.803Z,20.43
2018-11-26T03:45:14.365Z,20.03
2018-11-26T03:47:42.140Z,19.40
2018-11-26T03:50:10.786Z,22.87
2018-11-26T03:52:39.531Z,38.77
2018-11-26T03:55:08.753Z,31.43
2018-11-26T03:57:36.658Z,33.57
2018-11-26T04:00:09.145Z,34.77
2018-11-26T04:02:37.009Z,34.77
2018-11-26T04:05:07.074Z,35.40
2018-11-26T04:07:37.665Z,39.07
2018-11-26T04:10:10.271Z,37.20
2018-11-26T04:12:41.065Z,39.87
2018-11-26T04:15:14.540Z,43.27
2018-11-26T04:17:44.765Z,49.13
2018-11-26T04:20:16.604Z,41.37
2018-11-26T04:22:47.483Z,38.97
2018-11-26T04:25:18.732Z,41.33
2018-11-26T04:27:49.449Z,37.80
2018-11-26T04:30:18.691Z,40.37
2018-11-26T04:32:49.421Z,39.70
2018-11-26T04:35:19.053Z,38.23
2018-11-26T04:37:50.573Z,39.70
2018-11-26T04:40:21.566Z,39.77
2018-11-26T04:42:50.002Z,39.17
2018-11-26T04:45:17.718Z,38.13
2018-11-26T04:47:45.394Z,39.80
2018-11-26T04:50:13.080Z,37.70
2018-11-26T04:52:40.665Z,36.90
2018-11-26T04:55:09.783Z,37.60
2018-11-26T04:57:42.142Z,37.87
2018-11-26T05:00:08.375Z,36.63
2018-11-26T05:02:36.725Z,36.40
2018-11-26T05:05:05.069Z,37.10
2018-11-26T05:07:33.399Z,35.57
2018-11-26T05:10:01.258Z,35.43
2018-11-26T05:12:29.027Z,36.27
2018-11-26T05:14:56.750Z,34.23
2018-11-26T05:17:24.399Z,35.27
2018-11-26T05:19:53.043Z,34.23
2018-11-26T05:22:21.275Z,34.30
2018-11-26T05:24:49.068Z,34.17
2018-11-26T05:27:16.668Z,33.27
2018-11-26T05:29:44.438Z,31.37
2018-11-26T05:32:12.228Z,33.73
2018-11-26T05:34:40.249Z,34.20
2018-11-26T05:37:07.940Z,32.17
2018-11-26T05:39:35.631Z,32.10
2018-11-26T05:42:03.506Z,33.03
2018-11-26T05:44:31.369Z,32.00
2018-11-26T05:46:59.074Z,32.40
2018-11-26T05:49:26.814Z,32.60
2018-11-26T05:51:54.554Z,30.13
2018-11-26T05:54:22.494Z,30.03
2018-11-26T05:56:50.168Z,30.00
2018-11-26T05:59:17.786Z,30.70
2018-11-26T06:01:45.438Z,30.70
2018-11-26T06:04:13.663Z,30.13
2018-11-26T06:06:41.555Z,29.33
2018-11-26T06:09:10.130Z,29.37
2018-11-26T06:11:39.760Z,28.63
2018-11-26T06:14:07.682Z,28.63
2018-11-26T06:16:36.383Z,28.03
2018-11-26T06:19:05.023Z,28.80
2018-11-26T06:21:32.854Z,27.97
2018-11-26T06:24:00.556Z,28.67
2018-11-26T06:26:28.294Z,27.20
2018-11-26T06:28:55.970Z,27.47
2018-11-26T06:31:23.734Z,27.90
2018-11-26T06:33:52.726Z,27.63
2018-11-26T06:36:21.007Z,26.47
2018-11-26T06:38:48.727Z,27.20
2018-11-26T06:41:16.636Z,27.10
2018-11-26T06:43:44.389Z,26.60
2018-11-26T06:46:12.140Z,26.37
2018-11-26T06:48:39.807Z,26.23
2018-11-26T06:51:07.431Z,25.37
2018-11-26T06:53:35.201Z,25.00
2018-11-26T06:56:03.943Z,25.43
2018-11-26T06:58:31.684Z,26.23
2018-11-26T07:00:59.385Z,26.33
2018-11-26T07:03:27.108Z,25.63
2018-11-26T07:05:55.448Z,25.83
2018-11-26T07:08:23.209Z,24.70
2018-11-26T07:10:51.638Z,23.23
2018-11-26T07:13:19.461Z,23.20
2018-11-26T07:15:47.133Z,22.03
2018-11-26T07:18:15.015Z,23.23
2018-11-26T07:20:42.745Z,21.83
2018-11-26T07:23:10.484Z,22.10
2018-11-26T07:25:38.788Z,22.07
2018-11-26T07:28:07.511Z,23.73
2018-11-26T07:30:35.134Z,22.10
2018-11-26T07:33:03.117Z,23.83
2018-11-26T07:35:31.749Z,25.10
2018-11-26T07:37:59.429Z,25.43
2018-11-26T07:40:27.189Z,27.07
2018-11-26T07:43:02.622Z,26.63
2018-11-26T07:45:30.334Z,27.40
2018-11-26T07:47:57.954Z,26.70
2018-11-26T07:50:25.679Z,27.07
2018-11-26T07:52:53.494Z,28.53
2018-11-26T07:55:21.731Z,27.53
2018-11-26T07:57:49.717Z,27.60
2018-11-26T08:00:18.901Z,26.57
2018-11-26T08:02:47.113Z,29.13
2018-11-26T08:05:17.181Z,28.30
2018-11-26T08:07:44.960Z,29.17
2018-11-26T08:10:14.713Z,29.33
2018-11-26T08:12:42.877Z,29.20
2018-11-26T08:15:16.101Z,29.20
2018-11-26T08:17:44.551Z,30.03
2018-11-26T08:20:12.519Z,29.57
2018-11-26T08:22:40.962Z,29.43
2018-11-26T08:25:10.737Z,29.33
2018-11-26T08:27:39.507Z,29.30
2018-11-26T08:30:14.418Z,27.70
2018-11-26T08:32:42.723Z,27.87
2018-11-26T08:35:11.946Z,28.87
2018-11-26T08:37:45.617Z,29.33
2018-11-26T08:40:17.847Z,28.93
2018-11-26T08:42:51.179Z,28.83
2018-11-26T08:45:24.703Z,28.10
2018-11-26T08:47:56.354Z,27.40
2018-11-26T08:50:24.037Z,27.13
2018-11-26T08:52:53.226Z,26.83
2018-11-26T08:55:21.551Z,26.83
2018-11-26T08:57:49.282Z,26.10
2018-11-26T09:00:17.080Z,26.03
2018-11-26T09:02:44.974Z,25.97
2018-11-26T09:05:23.889Z,26.47
2018-11-26T09:07:46.097Z,26.00
2018-11-26T09:10:14.373Z,26.43
2018-11-26T09:12:41.986Z,25.43
2018-11-26T09:15:10.150Z,24.53
2018-11-26T09:17:38.184Z,24.80
2018-11-26T09:20:09.914Z,23.57
2018-11-26T09:22:37.745Z,24.27
2018-11-26T09:25:08.571Z,23.83
2018-11-26T09:27:37.209Z,24.80
2018-11-26T09:30:09.564Z,23.77
2018-11-26T09:32:38.045Z,23.33
2018-11-26T09:35:08.435Z,24.43
2018-11-26T09:37:36.285Z,24.30
2018-11-26T09:40:05.551Z,23.30
2018-11-26T09:42:33.382Z,23.50
2018-11-26T09:45:01.168Z,21.97
2018-11-26T09:47:29.499Z,21.90
2018-11-26T09:49:57.715Z,21.17
2018-11-26T09:52:25.640Z,21.73
2018-11-26T09:54:53.351Z,21.30
2018-11-26T09:57:21.055Z,21.40
2018-11-26T09:59:48.861Z,20.70
2018-11-26T10:02:16.529Z,20.67
2018-11-26T10:04:44.909Z,20.33
2018-11-26T10:07:14.176Z,21.60
2018-11-26T10:09:42.150Z,20.47
2018-11-26T10:12:09.909Z,19.60
2018-11-26T10:14:38.019Z,18.53
2018-11-26T10:17:05.731Z,19.67
2018-11-26T10:19:33.683Z,18.97
2018-11-26T10:22:01.413Z,18.33
2018-11-26T10:24:29.056Z,18.97
2018-11-26T10:26:57.004Z,19.83
2018-11-26T10:29:24.887Z,17.47
2018-11-26T10:31:52.687Z,17.77
2018-11-26T10:34:20.572Z,19.37
2018-11-26T10:36:48.902Z,18.20
2018-11-26T10:39:16.926Z,18.20
2018-11-26T10:41:44.825Z,18.27
2018-11-26T10:44:12.555Z,18.40
2018-11-26T10:46:40.476Z,17.27
2018-11-26T10:49:08.190Z,18.87
2018-11-26T10:51:35.834Z,16.60
2018-11-26T10:54:03.636Z,18.23
2018-11-26T10:56:31.476Z,17.43
2018-11-26T10:58:59.245Z,18.10
2018-11-26T11:01:32.650Z,16.93
2018-11-26T11:04:00.254Z,17.77
2018-11-26T11:06:28.148Z,16.70
2018-11-26T11:08:55.965Z,16.97
2018-11-26T11:11:24.187Z,17.03
2018-11-26T11:13:51.739Z,16.67
2018-11-26T11:16:19.559Z,15.23
2018-11-26T11:18:47.307Z,16.43
2018-11-26T11:21:16.012Z,15.93
2018-11-26T11:23:44.188Z,16.00
2018-11-26T11:26:12.864Z,16.73
2018-11-26T11:28:40.696Z,15.97
2018-11-26T11:31:08.479Z,15.83
2018-11-26T11:33:36.208Z,15.13
2018-11-26T11:36:04.077Z,15.93
2018-11-26T11:38:31.795Z,15.77
2018-11-26T11:41:00.133Z,15.07
2018-11-26T11:43:28.316Z,15.77
2018-11-26T11:45:56.362Z,15.67
2018-11-26T11:48:28.260Z,16.03
2018-11-26T11:50:56.132Z,15.20
2018-11-26T11:53:23.917Z,15.60
2018-11-26T11:55:51.756Z,14.70
2018-11-26T11:58:19.588Z,14.53
2018-11-26T12:00:48.282Z,14.33
2018-11-26T12:03:19.144Z,14.27
2018-11-26T12:05:47.527Z,14.43
2018-11-26T12:08:15.459Z,14.43
2018-11-26T12:10:44.678Z,14.80
2018-11-26T12:13:14.340Z,14.10
2018-11-26T12:15:44.904Z,15.63
2018-11-26T12:18:13.068Z,14.37
2018-11-26T12:20:42.376Z,13.50
2018-11-26T12:23:11.765Z,14.30
2018-11-26T12:25:40.435Z,13.90
2018-11-26T12:28:08.229Z,13.60
2018-11-26T12:30:39.433Z,13.57
2018-11-26T12:33:07.512Z,13.77
2018-11-26T12:35:36.440Z,13.23
2018-11-26T12:38:04.525Z,13.23
2018-11-26T12:40:32.313Z,13.37
2018-11-26T12:43:01.802Z,14.33
2018-11-26T12:45:32.506Z,12.97
2018-11-26T12:48:01.977Z,13.33
2018-11-26T12:50:29.997Z,13.00
2018-11-26T12:52:59.229Z,12.87
2018-11-26T12:55:27.178Z,12.57
2018-11-26T12:57:55.717Z,13.10
2018-11-26T13:00:25.271Z,12.80
2018-11-26T13:03:12.297Z,12.63
2018-11-26T13:05:41.680Z,13.33
2018-11-26T13:08:09.893Z,11.73
2018-11-26T13:10:38.483Z,12.97
2018-11-26T13:13:08.653Z,12.37
2018-11-26T13:15:38.055Z,12.20
2018-11-26T13:18:06.516Z,11.93
2018-11-26T13:20:34.267Z,12.37
2018-11-26T13:23:02.120Z,12.77
2018-11-26T13:25:31.642Z,12.07
2018-11-26T13:28:01.519Z,12.73
2018-11-26T13:30:31.824Z,11.90
2018-11-26T13:33:00.930Z,11.77
2018-11-26T13:35:29.949Z,11.47
2018-11-26T13:37:58.100Z,11.53
2018-11-26T13:40:26.836Z,11.80
2018-11-26T13:42:54.622Z,12.03
2018-11-26T13:45:31.936Z,11.90
2018-11-26T13:47:59.765Z,12.23
2018-11-26T13:50:32.382Z,12.50
2018-11-26T13:53:00.767Z,12.27
2018-11-26T13:55:29.341Z,11.10
2018-11-26T13:57:57.161Z,30.57
2018-11-26T14:00:25.078Z,29.10
2018-11-26T14:02:52.736Z,46.30
2018-11-26T14:05:20.475Z,41.50
2018-11-26T14:07:48.371Z,42.27
2018-11-26T14:10:18.601Z,25.27
2018-11-26T14:12:54.704Z,32.73
2018-11-26T14:15:22.551Z,34.13
2018-11-26T14:17:50.321Z,32.77
2018-11-26T14:20:19.035Z,37.77
2018-11-26T14:22:47.012Z,32.20
2018-11-26T14:25:17.100Z,27.27
2018-11-26T14:27:46.256Z,31.10
2018-11-26T14:30:19.498Z,31.23
2018-11-26T14:32:47.672Z,29.47
2018-11-26T14:35:15.650Z,30.47
2018-11-26T14:37:43.806Z,28.17
2018-11-26T14:40:15.534Z,25.13
2018-11-26T14:42:43.994Z,26.10
2018-11-26T14:45:13.368Z,26.13
2018-11-26T14:47:41.521Z,26.23
2018-11-26T14:50:11.021Z,26.70
2018-11-26T14:52:39.822Z,27.03
2018-11-26T14:55:10.088Z,26.93
2018-11-26T14:57:38.326Z,22.73
2018-11-26T15:00:09.600Z,22.53
2018-11-26T15:02:38.965Z,24.83
2018-11-26T15:05:08.878Z,26.10
2018-11-26T15:07:39.525Z,26.80
2018-11-26T15:10:17.413Z,20.97
2018-11-26T15:12:46.263Z,22.43
2018-11-26T15:15:18.064Z,21.20
2018-11-26T15:17:47.063Z,23.13
2018-11-26T15:20:26.816Z,24.47
2018-11-26T15:22:56.938Z,21.80
2018-11-26T15:25:30.779Z,21.77
2018-11-26T15:28:03.961Z,18.90
2018-11-26T15:30:33.306Z,19.87
2018-11-26T15:33:02.665Z,18.67
2018-11-26T15:35:31.712Z,19.60
2018-11-26T15:38:01.959Z,19.53
2018-11-26T15:40:32.360Z,20.13
2018-11-26T15:43:02.523Z,18.23
2018-11-26T15:45:33.361Z,20.27
2018-11-26T15:48:05.535Z,18.87
2018-11-26T15:50:35.658Z,20.83
2018-11-26T15:53:05.893Z,18.27
2018-11-26T15:55:35.313Z,18.23
2018-11-26T15:58:04.372Z,18.63
2018-11-26T16:00:33.043Z,18.30
2018-11-26T16:03:01.709Z,16.97
2018-11-26T16:05:32.051Z,21.37
2018-11-26T16:08:03.986Z,17.30
2018-11-26T16:10:32.952Z,16.80
2018-11-26T16:13:04.024Z,17.13
2018-11-26T16:15:41.393Z,16.57
2018-11-26T16:18:11.780Z,16.30
2018-11-26T16:20:41.087Z,17.30
2018-11-26T16:23:11.072Z,18.83
2018-11-26T16:25:44.208Z,16.43
2018-11-26T16:28:15.232Z,15.03
2018-11-26T16:30:43.653Z,15.93
2018-11-26T16:33:13.519Z,16.57
2018-11-26T16:35:42.693Z,16.13
2018-11-26T16:38:12.032Z,15.90
2018-11-26T16:40:41.253Z,16.57
2018-11-26T16:43:10.603Z,13.97
2018-11-26T16:45:41.692Z,17.80
2018-11-26T16:48:13.155Z,14.93
2018-11-26T16:50:41.843Z,16.47
2018-11-26T16:53:10.948Z,15.27
2018-11-26T16:55:39.830Z,15.57
2018-11-26T16:58:09.393Z,16.83
2018-11-26T17:00:38.907Z,17.00
2018-11-26T17:03:07.514Z,16.23
2018-11-26T17:05:37.483Z,15.23
2018-11-26T17:08:09.684Z,16.57
2018-11-26T17:10:40.134Z,15.30
2018-11-26T17:13:11.695Z,15.40
2018-11-26T17:15:41.930Z,14.90
2018-11-26T17:18:10.603Z,15.37
2018-11-26T17:20:39.900Z,14.60
2018-11-26T17:23:09.185Z,15.73
2018-11-26T17:25:37.762Z,15.40
2018-11-26T17:28:07.119Z,15.73
2018-11-26T17:30:36.608Z,13.70
2018-11-26T17:33:07.013Z,15.60
2018-11-26T17:35:37.198Z,15.33
2018-11-26T17:38:07.994Z,13.00
2018-11-26T17:40:36.511Z,13.73
2018-11-26T17:43:05.729Z,13.90
2018-11-26T17:45:35.687Z,12.77
2018-11-26T17:48:05.374Z,15.57
2018-11-26T17:50:40.489Z,13.53
2018-11-26T17:53:16.029Z,12.87
2018-11-26T17:55:50.908Z,11.70
2018-11-26T17:58:22.118Z,11.57
2018-11-26T18:00:54.724Z,14.10
2018-11-26T18:03:23.796Z,11.57
2018-11-26T18:05:53.236Z,11.33
2018-11-26T18:08:22.795Z,13.27
2018-11-26T18:10:51.492Z,13.33
2018-11-26T18:13:21.315Z,12.37
2018-11-26T18:15:50.661Z,11.47
2018-11-26T18:18:20.191Z,11.00
2018-11-26T18:20:49.070Z,10.33
2018-11-26T18:23:17.045Z,11.90
2018-11-26T18:25:46.674Z,10.30
2018-11-26T18:28:16.685Z,11.17
2018-11-26T18:30:48.635Z,11.47
2018-11-26T18:33:16.380Z,11.77
2018-11-26T18:35:44.824Z,10.47
2018-11-26T18:38:13.079Z,11.73
2018-11-26T18:40:42.766Z,12.20
2018-11-26T18:43:10.540Z,11.60
2018-11-26T18:45:39.839Z,10.33
2018-11-26T18:48:08.544Z,10.83
2018-11-26T18:50:36.462Z,10.03
2018-11-26T18:53:04.536Z,11.83
2018-11-26T18:55:32.351Z,10.40
2018-11-26T18:58:00.180Z,10.47
2018-11-26T19:00:30.411Z,10.27
2018-11-26T19:02:58.692Z,10.43
2018-11-26T19:05:26.625Z,10.23
2018-11-26T19:07:54.542Z,11.20
2018-11-26T19:10:24.362Z,11.63
2018-11-26T19:12:58.585Z,10.27
2018-11-26T19:15:29.270Z,11.27
2018-11-26T19:17:59.932Z,10.47
2018-11-26T19:20:27.824Z,9.97
2018-11-26T19:22:56.467Z,11.37
2018-11-26T19:25:24.837Z,10.23
2018-11-26T19:27:53.864Z,9.90
2018-11-26T19:30:23.269Z,9.90
2018-11-26T19:32:49.624Z,9.43
2018-11-26T19:35:18.086Z,10.03
2018-11-26T19:37:46.645Z,9.93
2018-11-26T19:40:15.841Z,10.70
2018-11-26T19:42:45.240Z,12.43
2018-11-26T19:45:17.879Z,12.03
2018-11-26T19:47:46.333Z,13.50
2018-11-26T19:50:15.204Z,9.73
2018-11-26T19:52:44.958Z,9.93
2018-11-26T19:55:14.230Z,9.73
2018-11-26T19:57:42.194Z,11.33
2018-11-26T20:00:13.850Z,11.17
2018-11-26T20:02:42.149Z,12.77
2018-11-26T20:05:15.820Z,9.30
2018-11-26T20:07:46.546Z,10.30
2018-11-26T20:10:14.427Z,10.03
2018-11-26T20:12:42.142Z,10.90
2018-11-26T20:15:12.747Z,11.03
2018-11-26T20:17:41.101Z,10.50
2018-11-26T20:20:09.386Z,10.87
2018-11-26T20:22:38.851Z,10.07
2018-11-26T20:25:11.002Z,11.43
2018-11-26T20:27:40.817Z,10.60
2018-11-26T20:30:13.432Z,10.90
2018-11-26T20:32:43.759Z,10.97
2018-11-26T20:35:11.859Z,13.60
2018-11-26T20:37:40.064Z,13.03
2018-11-26T20:40:09.761Z,12.50
2018-11-26T20:42:39.037Z,13.50
2018-11-26T20:45:12.365Z,13.53
2018-11-26T20:47:40.130Z,13.87
2018-11-26T20:50:12.997Z,11.77
2018-11-26T20:52:40.748Z,11.17
2018-11-26T20:55:11.028Z,11.30
2018-11-26T20:57:38.979Z,11.60
2018-11-26T21:00:10.626Z,11.03
2018-11-26T21:02:38.653Z,11.47
2018-11-26T21:05:06.751Z,10.33
2018-11-26T21:07:34.519Z,10.27
2018-11-26T21:10:02.985Z,10.50
2018-11-26T21:12:30.633Z,11.87
2018-11-26T21:14:58.896Z,14.77
2018-11-26T21:17:26.555Z,13.30
2018-11-26T21:19:54.368Z,13.37
2018-11-26T21:22:22.828Z,11.57
2018-11-26T21:24:50.558Z,11.83
2018-11-26T21:27:18.283Z,11.37
2018-11-26T21:29:46.028Z,13.83
2018-11-26T21:32:13.857Z,11.10
2018-11-26T21:34:41.596Z,10.43
2018-11-26T21:37:09.249Z,12.10
2018-11-26T21:39:37.701Z,12.97
2018-11-26T21:42:05.617Z,12.33
2018-11-26T21:44:33.406Z,11.77
2018-11-26T21:47:01.097Z,9.87
2018-11-26T21:49:29.439Z,11.10
2018-11-26T21:51:57.136Z,11.60
2018-11-26T21:54:24.832Z,11.50
2018-11-26T21:56:52.560Z,8.93
2018-11-26T21:59:20.419Z,10.40
2018-11-26T22:01:48.165Z,9.23
2018-11-26T22:04:15.956Z,10.97
2018-11-26T22:06:43.697Z,9.57
2018-11-26T22:09:11.447Z,11.20
2018-11-26T22:11:39.746Z,10.70
2018-11-26T22:14:07.584Z,9.63
2018-11-26T22:16:35.263Z,10.00
2018-11-26T22:19:03.637Z,9.23
2018-11-26T22:21:31.427Z,10.70
2018-11-26T22:23:59.209Z,11.80
2018-11-26T22:26:27.048Z,10.03
2018-11-26T22:28:54.908Z,9.47
2018-11-26T22:31:22.704Z,9.53
2018-11-26T22:33:51.209Z,8.83
2018-11-26T22:36:19.007Z,9.70
2018-11-26T22:38:46.758Z,9.23
2018-11-26T22:41:14.468Z,10.00
2018-11-26T22:43:42.429Z,10.93
2018-11-26T22:46:10.199Z,8.37
2018-11-26T22:48:38.304Z,10.07
2018-11-26T22:51:05.981Z,11.10
2018-11-26T22:53:33.707Z,9.20
2018-11-26T22:56:01.471Z,9.20
2018-11-26T22:58:29.283Z,8.37
2018-11-26T23:00:57.571Z,8.93
2018-11-26T23:03:26.207Z,11.43
2018-11-26T23:05:54.879Z,9.97
2018-11-26T23:08:22.603Z,9.13
2018-11-26T23:10:50.321Z,9.20
2018-11-26T23:13:18.020Z,11.20
2018-11-26T23:15:46.347Z,9.10
2018-11-26T23:18:14.150Z,8.30
2018-11-26T23:20:41.929Z,7.43
2018-11-26T23:23:09.627Z,8.10
2018-11-26T23:25:37.336Z,9.40
2018-11-26T23:28:05.542Z,8.60
2018-11-26T23:30:33.292Z,9.70
2018-11-26T23:33:02.999Z,7.83
2018-11-26T23:35:30.802Z,8.70
2018-11-26T23:37:58.487Z,8.73
2018-11-26T23:40:26.232Z,7.13
2018-11-26T23:42:53.918Z,8.70
2018-11-26T23:45:29.962Z,7.80
2018-11-26T23:47:57.736Z,9.10
2018-11-26T23:50:25.501Z,8.47
2018-11-26T23:52:53.250Z,8.23
2018-11-26T23:55:22.054Z,7.93
2018-11-26T23:57:49.876Z,7.07
